Ana Sayfa
METAR-TAF:

METAR-TAF

Havaalanları :

Oswego County Airport

Fulton, New York, Amerika Birleşik Devletleri

Enlem: 43-21-03N, Boylam: 076-23-17W, yükseklik: 145 m

Güncel hava durumu gözlemi

Rapor saat 12:54 UTC de 8 dakika önce yapıldı.
Rüzgar batı/güneybatıdan 4 kt
Sıcaklık 23°C
Nem 65%
Basınç 1022 hPa
Görüş mesafesi: 16.1 km
Açık gökyüzü

METAR: KFZY 271254Z AUTO 25004KT 10SM CLR 23/16 A3018 RMK AO2 SLP217 T02280156

Saat: 09:02 (13:02 UTC)


TAF: eksik

4.000'den fazla havaalanı için hava durumu gözlemleri ve tahminleri (METAR ve TAF raporları).

Kullanılabilir istasyonlar harita üzerinde sarı ve kırmızı noktalarla gösterilir.

İstasyonun adını görmek için fareyi noktanın üzerinde gezdirin.

Sonrasında hava gözlem ve tahminlerini görmek için tıklayın.

Haritayı değiştirmek için: yaklaştırmak için siyah artı işaretli yeşil düğmeye ve uzaklaştırmak için de eksi işaretli düğmeye hızla tıklayın; bitişik haritalar için yeşil okları kullanın.


METAR-TAF: